ěÝzenÝ letovÚho provozu ╚eskÚ republiky
Letiste: LKTB Aktualizace: 18.05.2022 00:30:30  UTC
 METAR LKTB 18.05. 00:30 ...
METAR LKTB 180030Z 03003KT 350V070 CAVOK 11/08 Q1023 NOSIG=
 TAF LKTB 17.05. 23:00 ...
TAF LKTB 172300Z 1800/1906 35006KT CAVOK      BECMG 1806/1808 08008KT=